Time;durP1;ratioP1;P1;durP2;ratioP2;P2;SDS_P1;SDS_P2;PMS_P1;PMS_P2;Temp;Humidity;BMP_temperature;BMP_pressure;BME280_temperature;BME280_humidity;BME280_pressure;Samples;Min_cycle;Max_cycle;Signal;HPM_P1;HPM_P2
2024/04/04 00:00:07;;;;;;;10.40;2.08;;;12.70;99.90;;;;;;4964524;28;20046;-62
2024/04/04 00:02:33;;;;;;;4.07;1.50;;;12.60;99.90;;;;;;4964390;28;20058;-62
2024/04/04 00:05:00;;;;;;;4.65;1.00;;;12.60;99.90;;;;;;4964554;28;20051;-62
2024/04/04 00:07:26;;;;;;;1.92;0.70;;;12.60;99.90;;;;;;4967469;28;20058;-62
2024/04/04 00:09:52;;;;;;;1.80;0.68;;;12.70;99.90;;;;;;4966529;28;20494;-63
2024/04/04 00:12:19;;;;;;;3.95;1.00;;;12.70;99.90;;;;;;4968000;28;20204;-62
2024/04/04 00:14:46;;;;;;;3.45;0.80;;;12.70;99.90;;;;;;4962442;28;20055;-62
2024/04/04 00:17:12;;;;;;;3.95;0.80;;;12.70;99.90;;;;;;4966247;28;20444;-62
2024/04/04 00:19:38;;;;;;;4.60;0.85;;;12.70;99.90;;;;;;4967305;28;20062;-62
2024/04/04 00:22:03;;;;;;;1.75;0.70;;;12.70;99.90;;;;;;4965924;28;20058;-62
2024/04/04 00:24:29;;;;;;;2.75;0.80;;;12.70;99.90;;;;;;4969034;28;20419;-62
2024/04/04 00:26:55;;;;;;;3.13;0.63;;;12.70;99.90;;;;;;4965983;28;20047;-62
2024/04/04 00:29:21;;;;;;;4.28;0.80;;;12.70;99.90;;;;;;4965594;28;20047;-62
2024/04/04 00:31:46;;;;;;;3.35;0.70;;;12.70;99.90;;;;;;4963712;28;20058;-62
2024/04/04 00:34:12;;;;;;;2.38;0.80;;;12.70;99.90;;;;;;4966485;28;20058;-62
2024/04/04 00:36:38;;;;;;;3.95;0.70;;;12.70;99.90;;;;;;4946341;28;20067;-62
2024/04/04 00:39:04;;;;;;;3.58;0.65;;;12.70;99.90;;;;;;4965578;28;20055;-62
2024/04/04 00:41:30;;;;;;;1.17;0.63;;;12.80;99.90;;;;;;4968659;28;20074;-62
2024/04/04 00:43:56;;;;;;;5.85;0.80;;;12.80;99.90;;;;;;4965842;28;20047;-62
2024/04/04 00:46:23;;;;;;;3.53;0.60;;;12.80;99.90;;;;;;4964123;28;20518;-62
2024/04/04 00:48:49;;;;;;;3.63;1.00;;;12.70;99.90;;;;;;4970220;28;20043;-62
2024/04/04 00:51:15;;;;;;;2.63;0.85;;;12.60;99.90;;;;;;4968628;28;20494;-62
2024/04/04 00:53:41;;;;;;;2.90;0.70;;;12.60;99.90;;;;;;4962330;28;20431;-62
2024/04/04 00:56:07;;;;;;;4.57;0.80;;;12.60;99.90;;;;;;4967548;28;20055;-62
2024/04/04 00:58:34;;;;;;;3.65;1.10;;;12.50;99.90;;;;;;4965543;28;20061;-62
2024/04/04 01:01:00;;;;;;;4.28;0.90;;;12.40;99.90;;;;;;4967922;28;20051;-62
2024/04/04 01:03:26;;;;;;;2.45;0.50;;;12.30;99.90;;;;;;4968921;28;20114;-62
2024/04/04 01:05:52;;;;;;;2.53;0.68;;;12.20;99.90;;;;;;4966164;28;20082;-62
2024/04/04 01:08:19;;;;;;;2.88;0.70;;;12.30;99.90;;;;;;4968421;28;20101;-62
2024/04/04 01:10:44;;;;;;;2.50;0.73;;;12.40;99.90;;;;;;4963798;28;20470;-62
2024/04/04 01:13:10;;;;;;;2.10;0.73;;;12.40;99.90;;;;;;4968977;28;20055;-62
2024/04/04 01:15:36;;;;;;;2.45;0.90;;;12.40;99.90;;;;;;4963938;28;20518;-62
2024/04/04 01:18:02;;;;;;;1.67;0.93;;;12.40;99.90;;;;;;4964759;28;20260;-62
2024/04/04 01:20:27;;;;;;;0.90;0.52;;;12.30;99.90;;;;;;4964281;28;20144;-62
2024/04/04 01:22:53;;;;;;;2.97;0.70;;;12.20;99.90;;;;;;4964913;28;20054;-62
2024/04/04 01:25:19;;;;;;;0.82;0.63;;;12.30;99.90;;;;;;4962749;28;20097;-62
2024/04/04 01:27:49;;;;;;;2.60;0.70;;;12.20;99.90;;;;;;4966145;28;20066;-62
2024/04/04 01:30:17;;;;;;;3.38;1.30;;;12.20;99.90;;;;;;4963543;28;20081;-62
2024/04/04 01:32:43;;;;;;;2.05;0.65;;;12.10;99.90;;;;;;4962380;28;20069;-62
2024/04/04 01:35:09;;;;;;;2.60;0.80;;;12.10;99.90;;;;;;4962041;28;20404;-62
2024/04/04 01:37:36;;;;;;;2.67;0.98;;;12.10;99.90;;;;;;4966373;28;20093;-62
2024/04/04 01:40:04;;;;;;;4.72;0.90;;;12.10;99.90;;;;;;4965641;28;20058;-62
2024/04/04 01:42:29;;;;;;;3.40;0.75;;;12.10;99.90;;;;;;4965977;28;20066;-62
2024/04/04 01:44:55;;;;;;;4.82;0.80;;;12.20;99.90;;;;;;4965424;28;20051;-62
2024/04/04 01:47:21;;;;;;;2.75;0.80;;;12.20;99.90;;;;;;4958401;28;20051;-62
2024/04/04 01:49:47;;;;;;;2.33;0.70;;;12.30;99.90;;;;;;4965048;28;20047;-62
2024/04/04 01:52:13;;;;;;;4.15;0.98;;;12.30;99.90;;;;;;4964946;28;20051;-62
2024/04/04 01:54:38;;;;;;;5.15;0.90;;;12.40;99.90;;;;;;4966443;28;20054;-62
2024/04/04 01:57:04;;;;;;;6.63;1.45;;;12.40;99.90;;;;;;4963809;28;20066;-62
2024/04/04 01:59:30;;;;;;;3.70;1.02;;;12.50;99.90;;;;;;4963593;28;20063;-62
2024/04/04 02:01:56;;;;;;;6.38;1.23;;;12.50;99.90;;;;;;4964070;28;20660;-63
2024/04/04 02:04:22;;;;;;;5.03;0.93;;;12.50;99.90;;;;;;4965546;28;20055;-63
2024/04/04 02:06:48;;;;;;;4.95;0.75;;;12.50;99.90;;;;;;4965869;28;20055;-63
2024/04/04 02:09:13;;;;;;;4.53;0.80;;;12.60;99.90;;;;;;4962429;28;20043;-63
2024/04/04 02:11:40;;;;;;;5.85;1.23;;;12.60;99.90;;;;;;4967460;28;20089;-62
2024/04/04 02:14:09;;;;;;;2.72;1.15;;;12.60;99.90;;;;;;4962560;28;20058;-61
2024/04/04 02:16:37;;;;;;;4.38;1.08;;;12.60;99.90;;;;;;4965467;28;20059;-62
2024/04/04 02:19:03;;;;;;;6.45;1.13;;;12.60;99.90;;;;;;4967097;28;20054;-62
2024/04/04 02:21:29;;;;;;;9.27;1.60;;;12.60;99.90;;;;;;4964185;28;20098;-62
2024/04/04 02:23:54;;;;;;;8.52;1.25;;;12.60;99.90;;;;;;4966259;28;20050;-62
2024/04/04 02:26:20;;;;;;;6.05;1.35;;;12.60;99.90;;;;;;4964061;28;20047;-62
2024/04/04 02:28:46;;;;;;;6.05;1.38;;;12.60;99.90;;;;;;4967045;28;20065;-62
2024/04/04 02:31:11;;;;;;;6.05;1.45;;;12.60;99.90;;;;;;4964470;28;20054;-62
2024/04/04 02:33:37;;;;;;;12.30;1.38;;;12.60;99.90;;;;;;4966092;28;20055;-62
2024/04/04 02:36:03;;;;;;;5.20;1.08;;;12.60;99.90;;;;;;4962160;28;20078;-62
2024/04/04 02:38:29;;;;;;;5.90;1.25;;;12.60;99.90;;;;;;4962634;28;20062;-62
2024/04/04 02:40:55;;;;;;;4.80;1.00;;;12.60;99.90;;;;;;4967673;28;20047;-62
2024/04/04 02:43:21;;;;;;;8.30;1.02;;;12.60;99.90;;;;;;4962742;28;20459;-62
2024/04/04 02:45:48;;;;;;;8.43;1.27;;;12.60;99.90;;;;;;4964518;28;20089;-62
2024/04/04 02:48:13;;;;;;;7.68;1.38;;;12.60;99.90;;;;;;4966842;28;20051;-62
2024/04/04 02:50:39;;;;;;;8.70;1.45;;;12.60;99.90;;;;;;4965136;28;20054;-62
2024/04/04 02:53:05;;;;;;;12.50;1.92;;;12.60;99.90;;;;;;4963423;28;20074;-63
2024/04/04 02:55:34;;;;;;;8.80;1.52;;;12.50;99.90;;;;;;4966444;28;20055;-62
2024/04/04 02:58:01;;;;;;;7.68;1.50;;;12.50;99.90;;;;;;4948799;28;20428;-62
2024/04/04 03:00:27;;;;;;;10.05;1.50;;;12.60;99.90;;;;;;4963845;28;20500;-62
2024/04/04 03:02:53;;;;;;;9.77;2.50;;;12.60;99.90;;;;;;4964659;28;20145;-62
2024/04/04 03:05:20;;;;;;;14.63;2.20;;;12.60;99.90;;;;;;4964055;28;20602;-62
2024/04/04 03:07:48;;;;;;;11.23;1.35;;;12.60;99.90;;;;;;4965653;28;20051;-62
2024/04/04 03:10:14;;;;;;;7.97;1.88;;;12.60;99.90;;;;;;4966442;28;20437;-62
2024/04/04 03:12:39;;;;;;;8.18;1.67;;;12.70;99.90;;;;;;4960555;28;20102;-62
2024/04/04 03:15:05;;;;;;;12.10;1.85;;;12.70;99.90;;;;;;4961952;28;20054;-62
2024/04/04 03:17:31;;;;;;;9.32;2.08;;;12.80;99.90;;;;;;4964922;28;20070;-62
2024/04/04 03:19:57;;;;;;;9.38;1.45;;;12.70;99.90;;;;;;4964432;28;20603;-62
2024/04/04 03:22:22;;;;;;;8.52;1.58;;;12.70;99.90;;;;;;4964905;28;20109;-62
2024/04/04 03:24:48;;;;;;;6.28;1.50;;;12.60;99.90;;;;;;4964552;28;20411;-62
2024/04/04 03:27:14;;;;;;;9.18;1.85;;;12.70;99.90;;;;;;4961321;28;20058;-62
2024/04/04 03:29:40;;;;;;;11.40;2.47;;;12.70;99.90;;;;;;4966052;28;20062;-63
2024/04/04 03:32:06;;;;;;;8.02;2.40;;;12.70;99.90;;;;;;4961952;28;20063;-62
2024/04/04 03:34:32;;;;;;;11.35;1.60;;;12.70;99.90;;;;;;4963336;28;20105;-62
2024/04/04 03:36:58;;;;;;;8.25;1.45;;;12.70;99.90;;;;;;4963454;28;20130;-62
2024/04/04 03:39:24;;;;;;;9.23;1.77;;;12.70;99.90;;;;;;4964455;28;20057;-62
2024/04/04 03:41:50;;;;;;;5.05;1.38;;;12.80;99.90;;;;;;4961894;28;20055;-62
2024/04/04 03:44:16;;;;;;;8.85;2.10;;;12.80;99.90;;;;;;4962766;28;20057;-63
2024/04/04 03:46:41;;;;;;;8.52;1.90;;;12.80;99.90;;;;;;4963059;28;20114;-62
2024/04/04 03:49:07;;;;;;;9.55;1.80;;;12.80;99.90;;;;;;4963799;28;20063;-62
2024/04/04 03:51:33;;;;;;;7.43;1.50;;;12.80;99.90;;;;;;4962589;28;20055;-63
2024/04/04 03:53:59;;;;;;;10.73;1.75;;;12.80;99.90;;;;;;4943155;28;20494;-62
2024/04/04 03:56:24;;;;;;;8.82;1.63;;;12.80;99.90;;;;;;4962369;28;20061;-62
2024/04/04 03:58:50;;;;;;;10.63;1.98;;;12.70;99.90;;;;;;4963809;28;20419;-63
2024/04/04 04:01:16;;;;;;;6.55;1.33;;;12.70;99.90;;;;;;4962815;28;20062;-62
2024/04/04 04:03:42;;;;;;;10.07;1.98;;;12.70;99.90;;;;;;4963794;28;20058;-62
2024/04/04 04:06:07;;;;;;;10.52;1.80;;;12.70;99.90;;;;;;4964576;28;20067;-62
2024/04/04 04:08:33;;;;;;;8.93;1.55;;;12.70;99.90;;;;;;4965257;28;20069;-62
2024/04/04 04:10:59;;;;;;;7.78;1.80;;;12.70;99.90;;;;;;4963463;28;20047;-62
2024/04/04 04:13:25;;;;;;;7.80;1.60;;;12.70;99.90;;;;;;4960548;28;20391;-62
2024/04/04 04:16:01;;;;;;;8.50;1.38;;;12.70;99.90;;;;;;4965706;28;20070;-63
2024/04/04 04:18:27;;;;;;;8.50;1.50;;;12.70;99.90;;;;;;4961500;28;20436;-62
2024/04/04 04:23:37;;;;;;;6.13;1.63;;;12.70;99.90;;;;;;4962728;28;20050;-62
2024/04/04 04:26:03;;;;;;;8.88;1.60;;;12.80;99.90;;;;;;4964807;28;20086;-62
2024/04/04 04:28:28;;;;;;;9.18;1.48;;;12.80;99.90;;;;;;4965257;28;20110;-62
2024/04/04 04:30:54;;;;;;;6.45;1.40;;;12.80;99.90;;;;;;4961848;28;20103;-62
2024/04/04 04:33:20;;;;;;;8.50;1.95;;;12.70;99.90;;;;;;4962722;28;20639;-62
2024/04/04 04:35:46;;;;;;;9.55;2.33;;;12.70;99.90;;;;;;4962897;28;20054;-62
2024/04/04 04:38:12;;;;;;;12.25;1.80;;;12.60;99.90;;;;;;4957131;28;20077;-62
2024/04/04 04:40:41;;;;;;;7.32;1.90;;;12.60;99.90;;;;;;4962926;28;20733;-61
2024/04/04 04:43:07;;;;;;;9.10;1.85;;;12.50;99.90;;;;;;4966614;28;20643;-62
2024/04/04 04:45:33;;;;;;;11.70;2.00;;;12.50;99.90;;;;;;4958541;28;20047;-62
2024/04/04 04:47:59;;;;;;;9.88;1.98;;;12.50;99.90;;;;;;4963712;28;20074;-62
2024/04/04 04:50:25;;;;;;;11.90;2.25;;;12.50;99.90;;;;;;4966824;28;20047;-62
2024/04/04 04:52:51;;;;;;;4.25;1.30;;;12.50;99.90;;;;;;4966313;28;20055;-62
2024/04/04 04:55:16;;;;;;;10.68;1.90;;;12.50;99.90;;;;;;4967259;28;20050;-62
2024/04/04 04:57:42;;;;;;;5.25;1.48;;;12.60;99.90;;;;;;4964743;28;20070;-62
2024/04/04 05:00:11;;;;;;;7.40;1.73;;;12.60;99.90;;;;;;4968383;28;20492;-62
2024/04/04 05:02:38;;;;;;;7.18;1.40;;;12.70;99.90;;;;;;4969022;28;20051;-62
2024/04/04 05:05:16;;;;;;;8.32;1.90;;;12.70;99.90;;;;;;4964992;28;20050;-62
2024/04/04 05:07:42;;;;;;;9.73;1.70;;;12.70;99.90;;;;;;4964922;28;20074;-60
2024/04/04 05:10:08;;;;;;;7.88;1.60;;;12.70;99.90;;;;;;4967621;28;20047;-62
2024/04/04 05:12:34;;;;;;;12.68;2.38;;;12.70;99.90;;;;;;4966312;28;20651;-61
2024/04/04 05:15:00;;;;;;;7.50;2.30;;;12.80;99.90;;;;;;4965574;28;20043;-62
2024/04/04 05:17:26;;;;;;;9.63;2.00;;;12.80;99.90;;;;;;4962779;28;20416;-62
2024/04/04 05:19:52;;;;;;;11.68;1.90;;;12.80;99.90;;;;;;4966561;28;20050;-62
2024/04/04 05:22:17;;;;;;;10.68;1.80;;;12.90;99.90;;;;;;4967838;28;20051;-62
2024/04/04 05:24:43;;;;;;;12.23;2.40;;;13.00;99.90;;;;;;4968045;28;20590;-62
2024/04/04 05:27:09;;;;;;;5.68;1.85;;;13.10;99.90;;;;;;4963524;28;20050;-63
2024/04/04 05:29:35;;;;;;;9.45;1.48;;;13.10;99.90;;;;;;4966040;28;20063;-60
2024/04/04 05:32:01;;;;;;;7.95;1.83;;;13.10;99.90;;;;;;4967198;28;20042;-60
2024/04/04 05:34:26;;;;;;;9.48;1.40;;;13.00;99.90;;;;;;4966856;28;20055;-62
2024/04/04 05:36:53;;;;;;;6.65;1.48;;;13.00;99.90;;;;;;4962712;28;20046;-62
2024/04/04 05:39:19;;;;;;;6.28;1.50;;;12.90;99.90;;;;;;4966845;28;20065;-62
2024/04/04 05:41:47;;;;;;;6.20;1.33;;;12.90;99.90;;;;;;4962391;28;20059;-62
2024/04/04 05:44:13;;;;;;;9.00;1.70;;;12.90;99.90;;;;;;4960514;28;20042;-61
2024/04/04 05:46:39;;;;;;;7.93;1.60;;;12.90;99.90;;;;;;4961519;28;20054;-62
2024/04/04 05:49:04;;;;;;;6.30;1.67;;;12.90;99.90;;;;;;4966767;28;20042;-62
2024/04/04 05:51:30;;;;;;;8.20;2.05;;;12.90;99.90;;;;;;4966333;28;20069;-61
2024/04/04 05:53:56;;;;;;;5.95;1.48;;;12.90;99.90;;;;;;4965129;28;20081;-61
2024/04/04 05:56:22;;;;;;;5.25;1.88;;;13.00;99.90;;;;;;4964117;28;20109;-61
2024/04/04 05:58:48;;;;;;;7.65;1.45;;;13.00;99.90;;;;;;4965462;28;20134;-62
2024/04/04 06:01:13;;;;;;;9.30;1.85;;;13.10;99.90;;;;;;4959937;28;20051;-62
2024/04/04 06:03:42;;;;;;;7.03;1.30;;;13.20;99.90;;;;;;4959970;28;20082;-62
2024/04/04 06:06:09;;;;;;;9.10;1.52;;;13.40;99.90;;;;;;4967949;28;20058;-62
2024/04/04 06:08:34;;;;;;;4.53;1.48;;;13.50;99.90;;;;;;4962921;28;20047;-61
2024/04/04 06:11:00;;;;;;;8.82;1.52;;;13.60;99.90;;;;;;4966066;28;20050;-62
2024/04/04 06:13:27;;;;;;;14.10;2.72;;;13.70;99.90;;;;;;4967597;28;20051;-62
2024/04/04 06:15:54;;;;;;;4.55;1.30;;;13.80;99.90;;;;;;4949809;28;20050;-62
2024/04/04 06:18:20;;;;;;;6.47;1.20;;;13.90;99.90;;;;;;4963436;28;20062;-62
2024/04/04 06:20:46;;;;;;;3.83;1.20;;;14.10;99.90;;;;;;4966753;28;20051;-62
2024/04/04 06:23:12;;;;;;;5.78;1.40;;;14.30;99.90;;;;;;4963554;28;20176;-62
2024/04/04 06:25:37;;;;;;;4.47;1.13;;;14.50;99.90;;;;;;4962546;28;20092;-62
2024/04/04 06:28:04;;;;;;;4.65;1.42;;;14.60;99.90;;;;;;4965730;28;20050;-62
2024/04/04 06:30:29;;;;;;;4.30;1.40;;;14.70;99.90;;;;;;4965548;28;20062;-62
2024/04/04 06:32:55;;;;;;;5.03;1.08;;;14.70;99.90;;;;;;4962462;28;20122;-62
2024/04/04 06:35:21;;;;;;;5.18;1.00;;;14.60;99.90;;;;;;4965710;28;20125;-62
2024/04/04 06:37:49;;;;;;;3.47;1.25;;;14.50;99.90;;;;;;4960871;28;20063;-62
2024/04/04 06:40:16;;;;;;;3.30;1.42;;;14.30;99.90;;;;;;4963101;28;20046;-63
2024/04/04 06:42:42;;;;;;;5.38;1.02;;;14.30;99.90;;;;;;4965060;28;20058;-62
2024/04/04 06:45:08;;;;;;;6.50;1.30;;;14.40;99.90;;;;;;4960827;28;20055;-62
2024/04/04 06:47:39;;;;;;;3.38;1.20;;;14.60;99.90;;;;;;4966941;28;20058;-62
2024/04/04 06:50:06;;;;;;;6.60;2.08;;;14.70;99.90;;;;;;4964236;28;20508;-62
2024/04/04 06:52:31;;;;;;;8.20;2.35;;;14.70;99.90;;;;;;4963121;28;20078;-62
2024/04/04 06:54:57;;;;;;;2.95;1.02;;;14.90;99.90;;;;;;4967064;28;20054;-62
2024/04/04 06:57:23;;;;;;;5.57;1.15;;;15.20;99.90;;;;;;4964292;28;20603;-63
2024/04/04 06:59:49;;;;;;;3.72;1.13;;;15.60;99.90;;;;;;4963889;28;20066;-62
2024/04/04 07:02:15;;;;;;;4.72;1.08;;;15.90;99.90;;;;;;4945325;28;20141;-62
2024/04/04 07:04:40;;;;;;;5.53;0.90;;;16.00;99.90;;;;;;4959870;28;20055;-62
2024/04/04 07:07:06;;;;;;;5.53;1.10;;;16.10;99.90;;;;;;4962686;28;20058;-62
2024/04/04 07:09:32;;;;;;;7.30;1.33;;;16.20;99.90;;;;;;4941147;28;20086;-62
2024/04/04 07:11:58;;;;;;;5.18;1.10;;;16.40;99.90;;;;;;4960719;28;20081;-62
2024/04/04 07:14:23;;;;;;;5.35;1.00;;;16.40;99.90;;;;;;4965319;28;20060;-62
2024/04/04 07:16:49;;;;;;;4.50;1.17;;;16.30;99.90;;;;;;4965605;28;20093;-62
2024/04/04 07:19:15;;;;;;;3.17;0.93;;;16.20;99.90;;;;;;4960034;28;20051;-62
2024/04/04 07:21:40;;;;;;;2.60;1.05;;;16.00;99.90;;;;;;4965813;28;20051;-62
2024/04/04 07:24:06;;;;;;;7.55;1.10;;;15.90;99.90;;;;;;4963053;28;20043;-62
2024/04/04 07:26:32;;;;;;;4.63;1.02;;;16.00;99.90;;;;;;4961972;28;20093;-62
2024/04/04 07:28:58;;;;;;;8.02;1.30;;;16.10;99.90;;;;;;4966918;28;20482;-62
2024/04/04 07:31:24;;;;;;;3.40;1.08;;;16.30;99.90;;;;;;4958098;28;20054;-62
2024/04/04 07:33:50;;;;;;;4.97;1.00;;;16.40;99.90;;;;;;4961411;28;20055;-62
2024/04/04 07:36:15;;;;;;;4.53;0.90;;;16.50;99.90;;;;;;4963545;28;20116;-62
2024/04/04 07:38:41;;;;;;;4.10;1.00;;;16.50;99.90;;;;;;4963053;28;20080;-62
2024/04/04 07:41:07;;;;;;;6.90;1.70;;;16.60;99.90;;;;;;4964249;28;20137;-62
2024/04/04 07:43:33;;;;;;;3.58;0.70;;;16.50;99.90;;;;;;4967550;28;20098;-62
2024/04/04 07:46:01;;;;;;;4.97;1.13;;;16.60;99.90;;;;;;4962974;28;20400;-62
2024/04/04 07:48:27;;;;;;;3.47;1.20;;;16.60;99.90;;;;;;4966232;28;20063;-62
2024/04/04 07:50:53;;;;;;;4.28;1.13;;;16.50;99.90;;;;;;4961356;28;20043;-62
2024/04/04 07:53:19;;;;;;;4.80;1.17;;;16.40;99.90;;;;;;4961320;28;20500;-63
2024/04/04 07:55:45;;;;;;;6.75;0.95;;;16.40;99.90;;;;;;4965602;28;20097;-62
2024/04/04 07:58:11;;;;;;;5.32;0.90;;;16.30;99.90;;;;;;4958115;28;20531;-62
2024/04/04 08:00:36;;;;;;;6.47;1.40;;;16.20;99.90;;;;;;4963733;28;20059;-62
2024/04/04 08:03:02;;;;;;;7.72;1.00;;;16.10;99.90;;;;;;4964039;28;20138;-62
2024/04/04 08:05:29;;;;;;;5.93;1.08;;;16.10;99.90;;;;;;4960139;28;20113;-62
2024/04/04 08:07:55;;;;;;;4.88;1.13;;;16.10;99.90;;;;;;4964335;28;20044;-63
2024/04/04 08:10:22;;;;;;;3.00;0.98;;;16.10;99.90;;;;;;4967768;28;20495;-62
2024/04/04 08:12:47;;;;;;;4.00;1.00;;;16.10;99.90;;;;;;4959742;28;20500;-62
2024/04/04 08:15:14;;;;;;;2.72;0.70;;;16.20;99.90;;;;;;4962426;28;20169;-62
2024/04/04 08:17:46;;;;;;;4.57;1.17;;;16.30;99.90;;;;;;4962385;28;20055;-62
2024/04/04 08:20:15;;;;;;;3.85;1.02;;;16.40;99.90;;;;;;4962353;28;20397;-62
2024/04/04 08:22:42;;;;;;;6.88;1.00;;;16.40;99.90;;;;;;4965558;28;20058;-62
2024/04/04 08:25:07;;;;;;;3.63;0.70;;;16.40;99.90;;;;;;4967690;28;20050;-62
2024/04/04 08:27:34;;;;;;;3.58;0.88;;;16.40;99.90;;;;;;4963121;28;20427;-62
2024/04/04 08:30:00;;;;;;;3.20;0.80;;;16.50;99.90;;;;;;4950261;28;20054;-62
2024/04/04 08:32:26;;;;;;;7.90;1.30;;;16.50;99.90;;;;;;4963697;28;20518;-63
2024/04/04 08:34:51;;;;;;;2.47;0.75;;;16.70;99.90;;;;;;4962353;28;20059;-62
2024/04/04 08:37:17;;;;;;;2.70;1.30;;;16.90;99.90;;;;;;4967920;28;20050;-62
2024/04/04 08:39:43;;;;;;;1.65;0.80;;;17.10;99.90;;;;;;4965346;28;20055;-62
2024/04/04 08:42:09;;;;;;;3.92;0.80;;;17.30;99.90;;;;;;4970862;28;20108;-63
2024/04/04 08:44:35;;;;;;;2.95;0.82;;;17.50;99.90;;;;;;4962487;28;20053;-62
2024/04/04 08:47:02;;;;;;;2.42;0.80;;;17.60;99.90;;;;;;4967725;28;20208;-63
2024/04/04 08:49:29;;;;;;;4.25;1.35;;;17.80;99.90;;;;;;4966068;28;20051;-63
2024/04/04 08:51:56;;;;;;;4.35;1.10;;;18.00;99.90;;;;;;4961055;28;20048;-62
2024/04/04 08:54:26;;;;;;;4.40;1.45;;;18.00;99.90;;;;;;4966257;28;20686;-63
2024/04/04 08:56:53;;;;;;;2.40;0.70;;;18.00;99.90;;;;;;4963822;28;20073;-62
2024/04/04 08:59:21;;;;;;;3.45;0.90;;;18.00;99.90;;;;;;4963329;28;20086;-61
2024/04/04 09:01:47;;;;;;;5.40;0.90;;;18.10;99.90;;;;;;4958241;28;20055;-63
2024/04/04 09:04:26;;;;;;;3.20;0.85;;;18.20;99.90;;;;;;4964612;28;20048;-63
2024/04/04 09:06:52;;;;;;;2.72;1.05;;;18.50;99.90;;;;;;4963896;28;20051;-62
2024/04/04 09:09:19;;;;;;;4.72;1.00;;;18.50;99.90;;;;;;4965105;28;20054;-63
2024/04/04 09:11:45;;;;;;;1.92;0.80;;;18.50;99.90;;;;;;4963200;28;20511;-64
2024/04/04 09:14:11;;;;;;;2.03;0.80;;;18.50;99.90;;;;;;4960273;28;20051;-63
2024/04/04 09:16:38;;;;;;;2.08;0.70;;;18.50;99.90;;;;;;4966387;28;20055;-62
2024/04/04 09:19:10;;;;;;;3.58;0.80;;;18.50;99.90;;;;;;4966776;28;20046;-61
2024/04/04 09:21:37;;;;;;;2.88;0.70;;;18.50;99.90;;;;;;4965184;28;20650;-63
2024/04/04 09:24:04;;;;;;;3.55;0.88;;;18.50;99.90;;;;;;4965830;28;20057;-63
2024/04/04 09:26:31;;;;;;;5.05;1.00;;;18.60;99.90;;;;;;4958949;28;20059;-63
2024/04/04 09:28:58;;;;;;;3.85;0.95;;;18.60;99.90;;;;;;4965677;28;20055;-63
2024/04/04 09:31:27;;;;;;;2.05;0.60;;;18.80;99.90;;;;;;4958647;28;20113;-63
2024/04/04 09:33:58;;;;;;;3.70;0.85;;;18.50;99.90;;;;;;4964848;28;20499;-63
2024/04/04 09:36:32;;;;;;;2.50;0.77;;;18.40;99.90;;;;;;4961550;28;20055;-63
2024/04/04 09:38:59;;;;;;;3.80;0.70;;;18.50;99.90;;;;;;4959495;28;20062;-63
2024/04/04 09:41:28;;;;;;;3.63;0.98;;;18.80;99.90;;;;;;4964441;28;20055;-63
2024/04/04 09:43:57;;;;;;;4.18;0.80;;;18.90;99.90;;;;;;4960390;28;20098;-63
2024/04/04 09:46:25;;;;;;;2.97;0.93;;;18.90;99.90;;;;;;4967705;28;20055;-63
2024/04/04 09:48:52;;;;;;;4.15;1.10;;;18.70;99.90;;;;;;4964449;28;20452;-63
2024/04/04 09:51:19;;;;;;;3.45;1.00;;;18.80;99.90;;;;;;4962612;28;20039;-63
2024/04/04 09:53:47;;;;;;;3.60;0.77;;;18.80;99.90;;;;;;4970690;28;20423;-63
2024/04/04 09:56:15;;;;;;;5.57;1.38;;;19.00;99.90;;;;;;4965634;28;20050;-63
2024/04/04 09:58:42;;;;;;;2.03;0.57;;;19.00;99.90;;;;;;4959368;28;20044;-63
2024/04/04 10:01:22;;;;;;;4.28;1.02;;;18.80;99.90;;;;;;4964941;28;20109;-62
2024/04/04 10:03:54;;;;;;;3.85;0.88;;;18.60;99.90;;;;;;4963209;28;20058;-62
2024/04/04 10:06:36;;;;;;;5.70;0.63;;;18.50;99.90;;;;;;4964579;28;20086;-62
2024/04/04 10:09:23;;;;;;;3.05;0.90;;;18.40;99.90;;;;;;4967937;28;20063;-62
2024/04/04 10:11:50;;;;;;;4.80;0.70;;;18.40;99.90;;;;;;4961236;28;20055;-62
2024/04/04 10:14:17;;;;;;;4.47;1.10;;;18.40;99.90;;;;;;4960236;28;20055;-62
2024/04/04 10:16:47;;;;;;;4.78;1.10;;;18.30;99.90;;;;;;4964327;28;20497;-62
2024/04/04 10:19:34;;;;;;;5.25;1.65;;;18.20;99.90;;;;;;4963084;28;20047;-62
2024/04/04 10:22:04;;;;;;;2.85;0.80;;;18.10;99.90;;;;;;4962468;28;20058;-62
2024/04/04 10:24:32;;;;;;;5.25;0.90;;;18.20;99.90;;;;;;4964103;28;20076;-62
2024/04/04 10:27:02;;;;;;;4.10;0.93;;;18.40;99.90;;;;;;4963072;28;20050;-62
2024/04/04 10:29:34;;;;;;;;;;;18.40;99.90;;;;;;4967175;28;20043;-62
2024/04/04 10:32:01;;;;;;;4.80;0.90;;;18.40;99.90;;;;;;4963021;28;19953;-60
2024/04/04 10:34:26;;;;;;;1.08;0.63;;;18.40;99.90;;;;;;4964424;28;20064;-60
2024/04/04 10:36:53;;;;;;;5.35;1.08;;;18.20;99.90;;;;;;4967779;28;20054;-60
2024/04/04 10:39:21;;;;;;;1.83;0.82;;;18.00;99.90;;;;;;4967639;28;20047;-60
2024/04/04 10:41:51;;;;;;;3.00;0.80;;;17.90;99.90;;;;;;4960157;28;20612;-59
2024/04/04 10:44:18;;;;;;;4.35;0.80;;;17.90;99.90;;;;;;4961678;28;20054;-59
2024/04/04 10:46:52;;;;;;;4.07;1.20;;;17.90;99.90;;;;;;4961357;28;20050;-60
2024/04/04 10:49:23;;;;;;;6.07;1.63;;;17.80;99.90;;;;;;4963875;28;20119;-60
2024/04/04 10:51:52;;;;;;;7.68;2.10;;;17.70;99.90;;;;;;4967282;28;20046;-59
2024/04/04 10:54:19;;;;;;;7.15;2.03;;;17.40;99.90;;;;;;4963380;28;20495;-60
2024/04/04 10:56:45;;;;;;;9.00;2.13;;;17.30;99.90;;;;;;4963373;28;20067;-62
2024/04/04 10:59:15;;;;;;;8.93;2.30;;;17.20;99.90;;;;;;4964554;28;20054;-62
2024/04/04 11:01:41;;;;;;;7.75;2.08;;;17.10;99.90;;;;;;4969469;28;20063;-62
2024/04/04 11:04:11;;;;;;;6.40;1.83;;;17.10;99.90;;;;;;4961612;28;20050;-62
2024/04/04 11:06:39;;;;;;;9.85;2.17;;;17.10;99.90;;;;;;4967118;28;20054;-62
2024/04/04 11:09:15;;;;;;;9.30;2.15;;;17.10;99.90;;;;;;4962472;28;20098;-62
2024/04/04 11:11:49;;;;;;;10.02;2.25;;;16.90;99.90;;;;;;4964995;28;20051;-62
2024/04/04 11:14:17;;;;;;;10.07;1.80;;;16.70;99.90;;;;;;4966435;28;20067;-62
2024/04/04 11:16:44;;;;;;;7.05;2.20;;;16.60;99.90;;;;;;4959529;28;20055;-62
2024/04/04 11:19:10;;;;;;;7.32;1.83;;;16.50;99.90;;;;;;4964109;28;20050;-62
2024/04/04 11:21:37;;;;;;;7.35;2.28;;;16.50;99.90;;;;;;4960157;28;20050;-63
2024/04/04 11:24:03;;;;;;;5.95;1.75;;;16.40;99.90;;;;;;4963424;28;20063;-62
2024/04/04 11:26:29;;;;;;;6.72;1.50;;;16.20;99.90;;;;;;4957838;28;20082;-62
2024/04/04 11:28:55;;;;;;;6.15;1.42;;;16.20;99.90;;;;;;4961076;28;20054;-62
2024/04/04 11:31:21;;;;;;;6.63;1.30;;;16.00;99.90;;;;;;4969859;23;20059;-59
2024/04/04 11:33:47;;;;;;;8.38;1.33;;;16.00;99.90;;;;;;4942396;28;20062;-60
2024/04/04 11:36:13;;;;;;;4.68;1.15;;;15.90;99.90;;;;;;4954434;28;20100;-60
2024/04/04 11:38:39;;;;;;;6.80;1.50;;;15.80;99.90;;;;;;4952594;28;20061;-59
2024/04/04 11:41:04;;;;;;;3.72;1.13;;;15.80;99.90;;;;;;4947390;28;20054;-63
2024/04/04 11:43:31;;;;;;;6.35;1.35;;;15.60;99.90;;;;;;4946525;28;20114;-59
2024/04/04 11:45:57;;;;;;;3.00;1.08;;;15.60;99.90;;;;;;4946643;28;20054;-63
2024/04/04 11:48:23;;;;;;;3.83;1.40;;;15.70;99.90;;;;;;4948156;28;20043;-60
2024/04/04 11:50:49;;;;;;;4.07;1.02;;;15.70;99.90;;;;;;4948038;28;20117;-60
2024/04/04 11:53:15;;;;;;;7.15;1.83;;;15.70;99.90;;;;;;4941831;28;20051;-61
2024/04/04 11:55:42;;;;;;;5.50;1.92;;;15.60;99.90;;;;;;4949756;28;20058;-60
2024/04/04 11:58:08;;;;;;;6.57;1.60;;;15.60;99.90;;;;;;4946931;28;20063;-63
2024/04/04 12:00:34;;;;;;;4.15;0.95;;;15.60;99.90;;;;;;4951324;28;20055;-60
2024/04/04 12:03:06;;;;;;;7.82;1.40;;;15.60;99.90;;;;;;4947664;28;20055;-60
2024/04/04 12:05:33;;;;;;;4.32;1.33;;;15.50;99.90;;;;;;4947476;29;20055;-58
2024/04/04 12:07:59;;;;;;;7.82;1.30;;;15.50;99.90;;;;;;4950314;28;20055;-60
2024/04/04 12:10:25;;;;;;;6.35;1.30;;;15.50;99.90;;;;;;4953545;28;20388;-60
2024/04/04 12:12:53;;;;;;;4.35;1.35;;;15.60;99.90;;;;;;4960589;28;20492;-58
2024/04/04 12:15:19;;;;;;;3.97;1.20;;;15.70;99.90;;;;;;4950872;28;20106;-59
2024/04/04 12:17:47;;;;;;;6.15;1.13;;;15.70;99.90;;;;;;4946949;28;20051;-60
2024/04/04 12:20:19;;;;;;;5.28;1.10;;;15.80;99.90;;;;;;4955252;28;20055;-61
2024/04/04 12:22:48;;;;;;;4.15;1.08;;;15.70;99.90;;;;;;4951399;28;20332;-59
2024/04/04 12:25:16;;;;;;;6.20;1.33;;;15.70;99.90;;;;;;4966624;28;20047;-58
2024/04/04 12:27:43;;;;;;;4.20;1.25;;;15.50;99.90;;;;;;4946006;28;20066;-60
2024/04/04 12:30:09;;;;;;;5.30;1.92;;;15.30;99.90;;;;;;4954771;28;20055;-60
2024/04/04 12:32:35;;;;;;;2.55;1.30;;;15.20;99.90;;;;;;4955196;28;20101;-59
2024/04/04 12:35:02;;;;;;;5.00;1.58;;;15.10;99.90;;;;;;4951201;28;20090;-57
2024/04/04 12:37:28;;;;;;;7.28;1.50;;;14.90;99.90;;;;;;4951222;28;20097;-60
2024/04/04 12:39:54;;;;;;;5.88;1.23;;;14.80;99.90;;;;;;4948705;28;20058;-60
2024/04/04 12:42:20;;;;;;;4.72;1.20;;;14.80;99.90;;;;;;4953541;28;20046;-60
2024/04/04 12:44:46;;;;;;;3.03;1.02;;;14.80;99.90;;;;;;4950503;28;20137;-60